Time;durP1;ratioP1;P1;durP2;ratioP2;P2;SDS_P1;SDS_P2;PMS_P1;PMS_P2;Temp;Humidity;BMP_temperature;BMP_pressure;BME280_temperature;BME280_humidity;BME280_pressure;Samples;Min_cycle;Max_cycle;Signal;HPM_P1;HPM_P2
2022/02/05 00:00:38;;;;;;;17.42;8.13;;;;;;;;;;4770591;29;20047;-77
2022/02/05 00:05:49;;;;;;;29.92;11.20;;;;;;;;;;4770344;30;20076;-76
2022/02/05 00:43:11;;;;;;;16.77;6.25;;;;;;;;;;4987719;28;20158;-78
2022/02/05 00:45:39;;;;;;;14.52;5.90;;;;;;;;;;4998028;28;21305;-77
2022/02/05 00:48:06;;;;;;;14.50;6.60;;;;;;;;;;4977599;28;20415;-77
2022/02/05 00:50:34;;;;;;;13.18;6.32;;;;;;;;;;4979757;28;20042;-77
2022/02/05 00:53:10;;;;;;;8.93;5.57;;;;;;;;;;4974949;28;20354;-76
2022/02/05 00:55:40;;;;;;;11.63;5.95;;;;;;;;;;4975298;28;20085;-77
2022/02/05 00:58:07;;;;;;;12.95;6.10;;;;;;;;;;4981848;28;20383;-77
2022/02/05 01:00:37;;;;;;;17.38;6.88;;;;;;;;;;4982761;28;20446;-78
2022/02/05 01:03:04;;;;;;;10.48;5.70;;;;;;;;;;4964541;28;20429;-76
2022/02/05 01:05:30;;;;;;;16.02;6.75;;;;;;;;;;4978096;28;20030;-76
2022/02/05 01:08:00;;;;;;;11.18;6.20;;;;;;;;;;4965780;28;20030;-77
2022/02/05 01:10:27;;;;;;;22.10;7.13;;;;;;;;;;4981032;28;20555;-77
2022/02/05 01:13:02;;;;;;;16.17;6.60;;;;;;;;;;4983091;28;20086;-76
2022/02/05 01:15:39;;;;;;;12.02;6.80;;;;;;;;;;4981222;28;20090;-77
2022/02/05 01:18:08;;;;;;;12.02;6.18;;;;;;;;;;4962885;28;20041;-76
2022/02/05 01:21:00;;;;;;;21.60;6.78;;;;;;;;;;4980454;28;20468;-77
2022/02/05 01:23:33;;;;;;;12.82;6.38;;;;;;;;;;4979961;28;20025;-77
2022/02/05 01:26:12;;;;;;;10.45;6.68;;;;;;;;;;4983350;28;20034;-77
2022/02/05 01:28:40;;;;;;;15.63;7.63;;;;;;;;;;4984117;28;20097;-77
2022/02/05 01:31:08;;;;;;;14.77;8.07;;;;;;;;;;4976983;28;20031;-77
2022/02/05 01:33:51;;;;;;;19.83;8.80;;;;;;;;;;5003355;28;20030;-77
2022/02/05 01:58:10;;;;;;;44.05;22.65;;;;;;;;;;4907511;29;20085;-77
2022/02/05 02:27:46;;;;;;;34.97;19.17;;;;;;;;;;4965377;28;20023;-77
2022/02/05 02:30:19;;;;;;;30.83;18.30;;;;;;;;;;4965355;29;20047;-76
2022/02/05 02:32:50;;;;;;;40.55;19.60;;;;;;;;;;4963497;29;20035;-76
2022/02/05 02:35:25;;;;;;;43.70;23.33;;;;;;;;;;4964561;28;20034;-77
2022/02/05 02:38:00;;;;;;;53.03;28.30;;;;;;;;;;4964280;28;20032;-78
2022/02/05 02:43:00;;;;;;;43.58;22.50;;;;;;;;;;4965810;28;20024;-77
2022/02/05 02:45:28;;;;;;;49.28;27.70;;;;;;;;;;4968973;28;20019;-77
2022/02/05 02:56:24;;;;;;;39.65;22.27;;;;;;;;;;5179379;23;20056;-77
2022/02/05 02:58:49;;;;;;;33.45;16.48;;;;;;;;;;5022372;28;20040;-77
2022/02/05 03:01:19;;;;;;;32.70;17.20;;;;;;;;;;5022449;28;20026;-78
2022/02/05 03:03:45;;;;;;;34.88;18.20;;;;;;;;;;5022423;28;20014;-77
2022/02/05 03:06:11;;;;;;;30.80;18.55;;;;;;;;;;5024346;28;20033;-78
2022/02/05 03:08:37;;;;;;;38.17;21.48;;;;;;;;;;5011497;28;20112;-78
2022/02/05 03:11:03;;;;;;;31.42;18.00;;;;;;;;;;5006097;28;20023;-77
2022/02/05 03:13:29;;;;;;;36.03;20.10;;;;;;;;;;5014675;28;20030;-77
2022/02/05 03:15:56;;;;;;;39.47;21.50;;;;;;;;;;5022036;28;20516;-77
2022/02/05 03:21:08;;;;;;;35.63;19.83;;;;;;;;;;5021511;28;20109;-76
2022/02/05 03:23:34;;;;;;;35.42;20.42;;;;;;;;;;5021248;28;20037;-76
2022/02/05 03:26:01;;;;;;;35.97;19.83;;;;;;;;;;5020026;28;20033;-76
2022/02/05 03:28:28;;;;;;;32.60;19.63;;;;;;;;;;5020806;28;20060;-76
2022/02/05 03:30:54;;;;;;;31.52;19.63;;;;;;;;;;5019425;28;20033;-77
2022/02/05 03:33:22;;;;;;;34.30;19.65;;;;;;;;;;5000517;28;20407;-76
2022/02/05 03:35:48;;;;;;;25.77;17.25;;;;;;;;;;4999654;28;20032;-76
2022/02/05 03:38:14;;;;;;;27.73;16.80;;;;;;;;;;5001229;28;20031;-77
2022/02/05 03:40:40;;;;;;;23.88;15.18;;;;;;;;;;5000280;28;20034;-76
2022/02/05 03:43:06;;;;;;;26.58;14.45;;;;;;;;;;5000127;28;20029;-77
2022/02/05 03:45:33;;;;;;;23.50;12.63;;;;;;;;;;5000645;28;20065;-76
2022/02/05 03:47:59;;;;;;;37.50;14.48;;;;;;;;;;4984323;28;20026;-76
2022/02/05 03:50:27;;;;;;;26.50;13.27;;;;;;;;;;5001054;28;20046;-77
2022/02/05 03:52:53;;;;;;;26.45;15.38;;;;;;;;;;5004201;28;20026;-78
2022/02/05 03:55:19;;;;;;;28.95;16.48;;;;;;;;;;5004996;28;20022;-79
2022/02/05 03:57:48;;;;;;;42.17;24.48;;;;;;;;;;5004885;28;20033;-79
2022/02/05 04:00:18;;;;;;;33.40;19.20;;;;;;;;;;5003425;28;20034;-77
2022/02/05 04:02:44;;;;;;;32.10;19.35;;;;;;;;;;5002431;28;20484;-77
2022/02/05 04:05:11;;;;;;;24.77;14.35;;;;;;;;;;4994157;28;20031;-79
2022/02/05 04:07:42;;;;;;;19.42;12.02;;;;;;;;;;5002510;28;20037;-77
2022/02/05 04:10:11;;;;;;;23.95;12.55;;;;;;;;;;4981701;28;20054;-76
2022/02/05 04:18:17;;;;;;;20.80;12.70;;;;;;;;;;4999508;28;20086;-77
2022/02/05 04:20:43;;;;;;;20.35;12.85;;;;;;;;;;4999342;28;20054;-76
2022/02/05 04:23:09;;;;;;;22.10;11.88;;;;;;;;;;4999387;28;20122;-77
2022/02/05 04:25:35;;;;;;;24.52;12.93;;;;;;;;;;4999067;28;20034;-77
2022/02/05 04:28:01;;;;;;;22.25;12.95;;;;;;;;;;4999147;28;20026;-77
2022/02/05 04:30:27;;;;;;;23.58;14.20;;;;;;;;;;4983135;28;20031;-76
2022/02/05 04:32:53;;;;;;;25.73;15.23;;;;;;;;;;5000546;28;20219;-77
2022/02/05 04:35:22;;;;;;;28.27;16.63;;;;;;;;;;5004976;28;20054;-78
2022/02/05 04:37:51;;;;;;;27.83;16.85;;;;;;;;;;4982222;28;20030;-77
2022/02/05 04:40:29;;;;;;;26.35;16.55;;;;;;;;;;4997751;28;20026;-76
2022/02/05 04:51:42;;;;;;;28.95;19.27;;;;;;;;;;4997671;28;20455;-76
2022/02/05 05:05:47;;;;;;;31.85;20.45;;;;;;;;;;4970086;28;20476;-76
2022/02/05 05:13:19;;;;;;;30.15;15.25;;;;;;;;;;4942010;29;20181;-77
2022/02/05 05:21:09;;;;;;;18.48;11.60;;;;;;;;;;4942972;29;20083;-77
2022/02/05 05:23:35;;;;;;;22.65;15.55;;;;;;;;;;4926597;29;20040;-78
2022/02/05 05:26:01;;;;;;;37.03;21.23;;;;;;;;;;4942685;29;20027;-77
2022/02/05 05:28:28;;;;;;;36.25;20.35;;;;;;;;;;4941154;29;20102;-77
2022/02/05 05:30:54;;;;;;;42.85;24.33;;;;;;;;;;4938945;29;20511;-78
2022/02/05 05:33:20;;;;;;;29.65;17.00;;;;;;;;;;4941902;29;20055;-78
2022/02/05 05:35:48;;;;;;;30.60;15.55;;;;;;;;;;4942763;29;20556;-77
2022/02/05 05:38:14;;;;;;;20.08;11.80;;;;;;;;;;4940269;29;20513;-77
2022/02/05 05:40:42;;;;;;;18.52;9.80;;;;;;;;;;4930325;29;20104;-78
2022/02/05 05:43:19;;;;;;;19.52;9.98;;;;;;;;;;4918013;29;20055;-77
2022/02/05 05:46:13;;;;;;;22.23;10.00;;;;;;;;;;4941056;29;20027;-77
2022/02/05 05:51:19;;;;;;;20.23;12.00;;;;;;;;;;4992907;28;20049;-77
2022/02/05 05:53:47;;;;;;;21.55;13.05;;;;;;;;;;4983436;28;20045;-76
2022/02/05 05:56:19;;;;;;;25.20;14.48;;;;;;;;;;5005938;28;20029;-78
2022/02/05 05:58:45;;;;;;;32.00;14.00;;;;;;;;;;5011289;28;20018;-76
2022/02/05 06:01:12;;;;;;;34.22;19.95;;;;;;;;;;5003429;28;20472;-77
2022/02/05 06:03:38;;;;;;;55.80;30.38;;;;;;;;;;4985814;28;20033;-75
2022/02/05 06:06:07;;;;;;;81.18;47.33;;;;;;;;;;4983537;28;20483;-76
2022/02/05 06:08:36;;;;;;;52.30;34.50;;;;;;;;;;5001238;28;20162;-75
2022/02/05 06:11:02;;;;;;;30.10;15.48;;;;;;;;;;4997808;28;20069;-75
2022/02/05 06:13:29;;;;;;;26.88;14.85;;;;;;;;;;4988461;28;20070;-77
2022/02/05 06:15:57;;;;;;;34.50;21.35;;;;;;;;;;5000749;28;20100;-78
2022/02/05 06:18:23;;;;;;;39.78;22.42;;;;;;;;;;5004413;28;20081;-77
2022/02/05 06:20:51;;;;;;;34.83;20.13;;;;;;;;;;4985438;28;20046;-77
2022/02/05 06:23:17;;;;;;;25.65;15.13;;;;;;;;;;4999124;28;20034;-75
2022/02/05 06:25:46;;;;;;;22.42;12.00;;;;;;;;;;5000586;28;20030;-75
2022/02/05 06:28:15;;;;;;;49.80;27.30;;;;;;;;;;5004532;28;20113;-78
2022/02/05 06:30:48;;;;;;;40.65;21.83;;;;;;;;;;5009312;28;20018;-77
2022/02/05 06:33:16;;;;;;;21.83;9.23;;;;;;;;;;5001358;28;20010;-78
2022/02/05 06:36:02;;;;;;;16.52;9.10;;;;;;;;;;5018609;28;20026;-78
2022/02/05 06:38:29;;;;;;;20.30;10.18;;;;;;;;;;4997574;28;20050;-77
2022/02/05 06:40:58;;;;;;;20.58;10.60;;;;;;;;;;4997599;28;20046;-77
2022/02/05 06:43:25;;;;;;;20.25;10.63;;;;;;;;;;5016915;28;20082;-73
2022/02/05 06:45:54;;;;;;;20.23;9.43;;;;;;;;;;5017384;28;20045;-75
2022/02/05 06:48:23;;;;;;;17.70;10.60;;;;;;;;;;5015510;28;20013;-73
2022/02/05 06:51:15;;;;;;;19.40;11.00;;;;;;;;;;4996576;28;20134;-78
2022/02/05 06:53:46;;;;;;;23.08;10.85;;;;;;;;;;5012930;28;20030;-77
2022/02/05 06:56:13;;;;;;;21.73;11.93;;;;;;;;;;5011563;28;20031;-78
2022/02/05 06:58:43;;;;;;;26.20;14.13;;;;;;;;;;4986105;28;20038;-78
2022/02/05 07:01:09;;;;;;;24.00;13.98;;;;;;;;;;5006985;28;20043;-76
2022/02/05 07:03:36;;;;;;;30.27;15.80;;;;;;;;;;4998085;28;20031;-77
2022/02/05 07:06:02;;;;;;;24.92;16.10;;;;;;;;;;5001251;28;20030;-76
2022/02/05 07:08:40;;;;;;;32.05;16.65;;;;;;;;;;5006432;28;20034;-77
2022/02/05 07:11:52;;;;;;;26.67;17.67;;;;;;;;;;5010321;28;20034;-78
2022/02/05 07:15:18;;;;;;;38.58;21.58;;;;;;;;;;5008479;28;20030;-76
2022/02/05 07:20:38;;;;;;;39.08;22.75;;;;;;;;;;5002003;28;20122;-77
2022/02/05 07:30:45;;;;;;;58.58;31.55;;;;;;;;;;4998029;28;20041;-74
2022/02/05 07:33:11;;;;;;;56.92;32.10;;;;;;;;;;4985709;28;20496;-75
2022/02/05 07:35:37;;;;;;;63.08;30.92;;;;;;;;;;5006630;28;20038;-75
2022/02/05 07:38:04;;;;;;;51.97;30.73;;;;;;;;;;5000959;28;20391;-75
2022/02/05 07:40:30;;;;;;;77.75;43.58;;;;;;;;;;4984945;28;20050;-75
2022/02/05 07:43:06;;;;;;;71.15;41.55;;;;;;;;;;5001987;28;20062;-76
2022/02/05 07:45:32;;;;;;;66.95;38.05;;;;;;;;;;5001565;28;20036;-75
2022/02/05 07:47:59;;;;;;;57.80;34.83;;;;;;;;;;4999558;28;20030;-76
2022/02/05 07:50:33;;;;;;;59.83;34.47;;;;;;;;;;5007924;28;20050;-75
2022/02/05 07:53:01;;;;;;;53.65;31.70;;;;;;;;;;5018435;28;20025;-75
2022/02/05 07:55:28;;;;;;;48.80;28.70;;;;;;;;;;5017904;28;20019;-77
2022/02/05 07:57:54;;;;;;;38.65;25.30;;;;;;;;;;5008465;28;20603;-74
2022/02/05 08:00:23;;;;;;;43.38;26.20;;;;;;;;;;5016354;28;20015;-77
2022/02/05 08:02:58;;;;;;;43.88;28.42;;;;;;;;;;5015865;28;20018;-74
2022/02/05 08:05:26;;;;;;;40.95;26.52;;;;;;;;;;5015680;28;20388;-74
2022/02/05 08:07:53;;;;;;;44.47;28.38;;;;;;;;;;5009599;28;20096;-76
2022/02/05 08:10:22;;;;;;;42.85;26.35;;;;;;;;;;5004918;28;20018;-74
2022/02/05 08:12:53;;;;;;;43.67;26.30;;;;;;;;;;5005404;28;20043;-71
2022/02/05 08:15:22;;;;;;;42.28;27.70;;;;;;;;;;5003900;28;20027;-74
2022/02/05 08:17:48;;;;;;;41.90;25.98;;;;;;;;;;5005457;28;20019;-75
2022/02/05 08:20:16;;;;;;;44.05;28.60;;;;;;;;;;5001481;28;20035;-73
2022/02/05 08:22:44;;;;;;;43.97;27.73;;;;;;;;;;5006017;28;20026;-76
2022/02/05 08:25:11;;;;;;;44.17;27.13;;;;;;;;;;5005851;28;20057;-73
2022/02/05 08:27:38;;;;;;;47.13;25.33;;;;;;;;;;5003654;28;20035;-76
2022/02/05 08:30:09;;;;;;;40.90;25.80;;;;;;;;;;4987959;28;20034;-75
2022/02/05 08:32:36;;;;;;;37.55;25.30;;;;;;;;;;5008395;28;20460;-75
2022/02/05 08:35:05;;;;;;;42.50;24.83;;;;;;;;;;5000475;28;20503;-76
2022/02/05 08:37:35;;;;;;;44.38;26.20;;;;;;;;;;5006400;28;20027;-76
2022/02/05 08:40:05;;;;;;;51.15;28.83;;;;;;;;;;4989665;28;20042;-77
2022/02/05 08:42:55;;;;;;;70.95;39.92;;;;;;;;;;4990197;28;20077;-78
2022/02/05 08:45:22;;;;;;;79.20;45.13;;;;;;;;;;4994778;28;20006;-81
2022/02/05 08:48:07;;;;;;;82.38;44.60;;;;;;;;;;5011020;28;20030;-78
2022/02/05 08:53:43;;;;;;;96.60;52.15;;;;;;;;;;5002882;28;20044;-79
2022/02/05 08:56:22;;;;;;;80.03;47.47;;;;;;;;;;5011457;28;20030;-79
2022/02/05 08:58:53;;;;;;;47.72;31.33;;;;;;;;;;4935965;29;20043;-75
2022/02/05 09:01:25;;;;;;;48.50;30.50;;;;;;;;;;4962045;28;20497;-75
2022/02/05 09:06:33;;;;;;;127.38;70.95;;;;;;;;;;4959096;29;20042;-72
2022/02/05 09:09:14;;;;;;;91.00;55.75;;;;;;;;;;4964221;28;20008;-76
2022/02/05 09:11:47;;;;;;;50.97;31.25;;;;;;;;;;4962739;29;20039;-74
2022/02/05 09:14:17;;;;;;;40.97;26.35;;;;;;;;;;4967429;28;20544;-77
2022/02/05 09:16:59;;;;;;;39.13;25.20;;;;;;;;;;4960079;29;20569;-75
2022/02/05 09:19:25;;;;;;;51.42;31.63;;;;;;;;;;4961777;28;20043;-75
2022/02/05 09:27:47;;;;;;;30.27;19.85;;;;;;;;;;4953502;29;20275;-76
2022/02/05 09:30:16;;;;;;;36.05;22.55;;;;;;;;;;4927468;29;20036;-76
2022/02/05 09:32:44;;;;;;;37.35;23.05;;;;;;;;;;4911265;29;20048;-78
2022/02/05 09:35:19;;;;;;;32.17;20.95;;;;;;;;;;4939411;28;20044;-78
2022/02/05 09:40:40;;;;;;;71.97;38.47;;;;;;;;;;5291656;23;20146;-79
2022/02/05 09:43:06;;;;;;;36.95;23.20;;;;;;;;;;4976513;29;20027;-78
2022/02/05 09:45:37;;;;;;;39.53;24.02;;;;;;;;;;4972134;28;20036;-75
2022/02/05 09:48:32;;;;;;;52.58;31.90;;;;;;;;;;4971257;28;20050;-82
2022/02/05 09:51:36;;;;;;;81.80;44.30;;;;;;;;;;4954979;28;20047;-80
2022/02/05 09:54:03;;;;;;;62.20;35.60;;;;;;;;;;4971769;28;20146;-73
2022/02/05 09:56:30;;;;;;;48.38;27.95;;;;;;;;;;4957176;28;20035;-77
2022/02/05 09:58:59;;;;;;;36.40;23.63;;;;;;;;;;4965484;28;20043;-76
2022/02/05 10:01:29;;;;;;;47.45;28.95;;;;;;;;;;4951433;29;20046;-77
2022/02/05 10:03:56;;;;;;;44.08;27.30;;;;;;;;;;4962193;28;20044;-76
2022/02/05 10:06:25;;;;;;;50.25;28.35;;;;;;;;;;4977335;28;20117;-75
2022/02/05 10:09:11;;;;;;;46.35;27.95;;;;;;;;;;4975728;28;20119;-73
2022/02/05 10:12:03;;;;;;;43.80;24.70;;;;;;;;;;4964985;28;20383;-76
2022/02/05 10:17:55;;;;;;;29.85;18.55;;;;;;;;;;4940448;29;20076;-79
2022/02/05 10:20:41;;;;;;;26.48;16.27;;;;;;;;;;4930648;29;20043;-77
2022/02/05 10:23:11;;;;;;;26.50;17.13;;;;;;;;;;4938079;29;20060;-78
2022/02/05 10:25:38;;;;;;;34.55;20.80;;;;;;;;;;4934061;29;20565;-75
2022/02/05 10:28:30;;;;;;;25.85;16.27;;;;;;;;;;4922055;29;20008;-78
2022/02/05 10:31:17;;;;;;;27.63;15.70;;;;;;;;;;4932444;29;20035;-78
2022/02/05 10:33:43;;;;;;;24.80;14.40;;;;;;;;;;4897000;29;20037;-75
2022/02/05 10:36:24;;;;;;;53.78;29.65;;;;;;;;;;4908030;29;20008;-76
2022/02/05 10:39:10;;;;;;;41.70;24.25;;;;;;;;;;4924056;29;20444;-76
2022/02/05 10:44:11;;;;;;;28.60;16.80;;;;;;;;;;4903179;29;20025;-77
2022/02/05 10:47:09;;;;;;;40.40;23.27;;;;;;;;;;5186051;23;20118;31
2022/02/05 10:56:01;;;;;;;35.45;19.67;;;;;;;;;;5507428;23;20017;-78
2022/02/05 11:10:07;;;;;;;34.13;18.92;;;;;;;;;;5014560;28;20130;-75
2022/02/05 11:13:14;;;;;;;33.55;19.88;;;;;;;;;;5017674;28;20030;-79
2022/02/05 11:21:13;;;;;;;49.63;28.20;;;;;;;;;;5008212;28;20049;-77
2022/02/05 11:23:40;;;;;;;53.70;33.35;;;;;;;;;;4995064;28;20085;-77
2022/02/05 11:26:14;;;;;;;44.45;27.30;;;;;;;;;;5003795;28;20034;-76
2022/02/05 11:28:41;;;;;;;48.70;31.48;;;;;;;;;;5011820;28;20026;-77
2022/02/05 11:31:35;;;;;;;52.47;30.60;;;;;;;;;;4998890;28;20081;-74
2022/02/05 11:34:35;;;;;;;38.53;24.33;;;;;;;;;;4999168;28;20011;-78
2022/02/05 11:37:08;;;;;;;51.15;30.48;;;;;;;;;;4976557;28;20015;-76
2022/02/05 11:39:44;;;;;;;51.58;33.72;;;;;;;;;;4960238;28;20035;-78
2022/02/05 11:42:46;;;;;;;59.20;36.47;;;;;;;;;;4958958;29;20432;-78
2022/02/05 11:45:27;;;;;;;43.58;26.67;;;;;;;;;;4892109;29;20029;-77
2022/02/05 11:47:54;;;;;;;34.45;22.15;;;;;;;;;;4897544;29;20072;-73
2022/02/05 11:50:24;;;;;;;43.55;26.13;;;;;;;;;;4895282;29;20025;-77
2022/02/05 11:52:50;;;;;;;43.97;24.63;;;;;;;;;;4900981;29;20041;-76
2022/02/05 11:55:41;;;;;;;46.42;23.58;;;;;;;;;;4897531;29;20050;-73
2022/02/05 11:58:16;;;;;;;48.58;27.85;;;;;;;;;;4905655;29;20036;-77
2022/02/05 12:01:03;;;;;;;39.67;23.42;;;;;;;;;;4908043;29;20051;-76
2022/02/05 12:03:36;;;;;;;31.73;19.30;;;;;;;;;;4933724;29;20047;-77
2022/02/05 12:06:13;;;;;;;31.10;19.85;;;;;;;;;;4934102;29;20043;-77
2022/02/05 12:08:44;;;;;;;48.17;16.63;;;;;;;;;;4928679;29;20044;-77
2022/02/05 12:11:30;;;;;;;30.63;14.90;;;;;;;;;;4920409;29;20040;-78
2022/02/05 12:14:18;;;;;;;18.63;8.57;;;;;;;;;;4927640;29;20032;-76
2022/02/05 12:17:06;;;;;;;25.70;12.82;;;;;;;;;;4913043;29;20560;-74
2022/02/05 12:19:36;;;;;;;49.40;24.05;;;;;;;;;;4965515;28;20110;-77
2022/02/05 12:22:12;;;;;;;13.50;5.88;;;;;;;;;;4986445;28;20026;-76
2022/02/05 12:25:20;;;;;;;25.10;6.80;;;;;;;;;;4986981;28;20037;-78
2022/02/05 12:27:49;;;;;;;18.95;6.30;;;;;;;;;;4992430;28;20043;-75
2022/02/05 12:30:29;;;;;;;13.35;6.05;;;;;;;;;;4996995;28;20037;-75
2022/02/05 12:32:59;;;;;;;11.20;6.35;;;;;;;;;;4988615;28;20082;-76
2022/02/05 12:35:25;;;;;;;17.38;7.65;;;;;;;;;;4976710;28;20035;-76
2022/02/05 12:37:55;;;;;;;18.95;11.38;;;;;;;;;;4987716;28;20027;-75
2022/02/05 12:40:44;;;;;;;22.02;8.40;;;;;;;;;;4988073;28;20026;-77
2022/02/05 12:43:16;;;;;;;15.65;7.43;;;;;;;;;;4910478;29;20032;-76
2022/02/05 12:45:58;;;;;;;13.68;6.72;;;;;;;;;;4909653;29;20064;-76
2022/02/05 12:48:27;;;;;;;15.77;5.70;;;;;;;;;;4907140;29;20537;-74
2022/02/05 12:50:57;;;;;;;11.95;5.68;;;;;;;;;;4900222;29;20025;-77
2022/02/05 12:53:30;;;;;;;8.65;4.82;;;;;;;;;;4912792;29;20073;-76
2022/02/05 12:56:10;;;;;;;14.10;5.97;;;;;;;;;;4898894;29;20049;-77
2022/02/05 12:58:55;;;;;;;9.55;5.28;;;;;;;;;;4895410;29;20029;-77
2022/02/05 13:01:21;;;;;;;15.32;5.70;;;;;;;;;;4903886;29;20044;-77
2022/02/05 13:03:50;;;;;;;13.45;5.45;;;;;;;;;;4902355;29;20098;-76
2022/02/05 13:06:22;;;;;;;15.45;4.65;;;;;;;;;;4861851;29;20037;-77
2022/02/05 13:09:07;;;;;;;9.68;5.18;;;;;;;;;;4910792;29;20097;-75
2022/02/05 13:11:39;;;;;;;12.57;5.00;;;;;;;;;;4898345;29;20044;-78
2022/02/05 13:15:03;;;;;;;6.80;4.20;;;;;;;;;;4857963;29;20041;-76
2022/02/05 13:17:45;;;;;;;9.88;5.93;;;;;;;;;;4822750;29;20121;-75
2022/02/05 13:25:54;;;;;;;9.10;4.47;;;;;;;;;;4859534;29;20117;-75
2022/02/05 13:33:50;;;;;;;24.45;5.00;;;;;;;;;;4824064;29;20506;-73
2022/02/05 13:42:06;;;;;;;9.10;6.65;;;;;;;;;;4841618;29;20061;-76
2022/02/05 13:44:41;;;;;;;7.07;3.78;;;;;;;;;;4834109;29;20099;-75
2022/02/05 13:47:16;;;;;;;7.13;3.75;;;;;;;;;;4856230;29;20040;-76
2022/02/05 13:50:09;;;;;;;7.78;5.00;;;;;;;;;;4852557;29;20034;-75
2022/02/05 13:52:39;;;;;;;11.27;5.30;;;;;;;;;;4875298;29;20048;-77
2022/02/05 13:55:26;;;;;;;9.90;5.30;;;;;;;;;;4929211;29;20028;-75
2022/02/05 13:58:04;;;;;;;8.40;3.90;;;;;;;;;;4927072;29;20067;-76
2022/02/05 14:01:02;;;;;;;8.80;3.70;;;;;;;;;;4931597;29;20041;-73
2022/02/05 14:03:28;;;;;;;6.53;3.45;;;;;;;;;;4917198;29;20064;-74
2022/02/05 14:06:02;;;;;;;11.38;3.80;;;;;;;;;;4913219;29;20485;-71
2022/02/05 14:08:29;;;;;;;13.13;4.07;;;;;;;;;;4911579;29;20534;-71
2022/02/05 14:10:57;;;;;;;5.88;4.03;;;;;;;;;;4948203;28;20058;-71
2022/02/05 14:13:23;;;;;;;10.48;4.03;;;;;;;;;;4972466;28;20034;-72
2022/02/05 14:15:57;;;;;;;6.18;4.57;;;;;;;;;;4974946;28;20034;-73
2022/02/05 14:18:24;;;;;;;9.02;5.78;;;;;;;;;;4986943;28;20029;-73
2022/02/05 14:20:51;;;;;;;14.27;7.05;;;;;;;;;;4976040;28;20035;-73
2022/02/05 14:23:21;;;;;;;8.13;4.93;;;;;;;;;;4983050;28;20023;-76
2022/02/05 14:25:53;;;;;;;14.73;4.75;;;;;;;;;;4978435;28;20370;-73
2022/02/05 14:28:34;;;;;;;10.43;5.25;;;;;;;;;;4979921;28;20498;-73
2022/02/05 14:31:08;;;;;;;9.40;5.30;;;;;;;;;;4965035;28;20027;-76
2022/02/05 14:33:45;;;;;;;8.73;5.35;;;;;;;;;;4968362;28;20019;-72
2022/02/05 14:36:36;;;;;;;10.52;5.28;;;;;;;;;;4975950;28;20114;-77
2022/02/05 14:41:52;;;;;;;8.85;5.10;;;;;;;;;;4971327;28;20066;-73
2022/02/05 14:44:18;;;;;;;10.00;5.35;;;;;;;;;;4966385;28;20033;-75
2022/02/05 14:46:45;;;;;;;10.75;5.03;;;;;;;;;;4967643;28;20145;-74
2022/02/05 14:49:11;;;;;;;12.05;4.90;;;;;;;;;;4970586;28;20023;-76
2022/02/05 14:51:37;;;;;;;10.45;4.30;;;;;;;;;;4971187;28;20047;-75
2022/02/05 14:54:04;;;;;;;11.23;4.82;;;;;;;;;;4973408;28;20019;-71
2022/02/05 14:56:30;;;;;;;16.38;10.98;;;;;;;;;;4977714;28;20030;-71
2022/02/05 14:58:57;;;;;;;14.40;6.78;;;;;;;;;;4982072;28;20058;-77
2022/02/05 15:01:25;;;;;;;11.48;6.15;;;;;;;;;;4982237;28;20038;-74
2022/02/05 15:03:51;;;;;;;9.13;5.20;;;;;;;;;;4985264;28;20058;-76
2022/02/05 15:06:25;;;;;;;15.32;6.20;;;;;;;;;;4982851;28;20511;-74
2022/02/05 15:08:52;;;;;;;12.20;5.43;;;;;;;;;;4983884;28;20022;-74
2022/02/05 15:11:21;;;;;;;10.48;6.20;;;;;;;;;;4994789;28;20026;-75
2022/02/05 15:13:47;;;;;;;17.50;9.70;;;;;;;;;;4991463;28;20050;-74
2022/02/05 15:16:17;;;;;;;15.80;4.97;;;;;;;;;;4983745;28;20106;-77
2022/02/05 15:18:51;;;;;;;5.95;4.00;;;;;;;;;;4982901;28;20376;-77
2022/02/05 15:21:18;;;;;;;13.55;7.47;;;;;;;;;;4982550;28;20046;-75
2022/02/05 15:23:46;;;;;;;10.23;4.85;;;;;;;;;;4977936;28;20023;-75
2022/02/05 15:26:19;;;;;;;9.57;4.40;;;;;;;;;;4975868;28;20031;-76
2022/02/05 15:28:55;;;;;;;29.77;5.30;;;;;;;;;;4983080;28;20023;-78
2022/02/05 15:31:22;;;;;;;15.15;6.85;;;;;;;;;;4975216;28;20030;-73
2022/02/05 15:33:54;;;;;;;35.47;17.60;;;;;;;;;;4981509;28;20038;-77
2022/02/05 15:36:36;;;;;;;17.02;8.95;;;;;;;;;;4981294;28;20051;-80
2022/02/05 15:39:13;;;;;;;14.20;6.40;;;;;;;;;;4958715;28;20027;-78
2022/02/05 15:44:27;;;;;;;11.50;5.47;;;;;;;;;;4970301;28;20114;-75
2022/02/05 15:46:54;;;;;;;8.50;4.30;;;;;;;;;;4963958;28;20031;-77
2022/02/05 15:49:23;;;;;;;9.77;4.75;;;;;;;;;;4975888;28;20031;-73
2022/02/05 15:51:52;;;;;;;15.70;7.43;;;;;;;;;;4975839;28;20079;-78
2022/02/05 15:54:22;;;;;;;13.45;6.47;;;;;;;;;;4969431;28;20089;-76
2022/02/05 16:02:45;;;;;;;13.00;7.22;;;;;;;;;;5015773;23;20119;-74
2022/02/05 16:05:11;;;;;;;50.83;33.50;;;;;;;;;;4987060;28;20102;-74
2022/02/05 16:07:37;;;;;;;24.33;13.75;;;;;;;;;;5011557;28;20022;-75
2022/02/05 16:10:04;;;;;;;23.52;14.00;;;;;;;;;;4986031;28;20033;-74
2022/02/05 16:12:30;;;;;;;13.38;7.95;;;;;;;;;;5011864;28;20023;-78
2022/02/05 16:14:58;;;;;;;21.60;11.18;;;;;;;;;;5009055;28;20034;-77
2022/02/05 16:17:24;;;;;;;20.00;11.75;;;;;;;;;;4986744;28;20039;-74
2022/02/05 16:19:51;;;;;;;16.90;7.82;;;;;;;;;;5004327;28;20058;-77
2022/02/05 16:22:17;;;;;;;16.85;9.05;;;;;;;;;;5008311;28;20065;-75
2022/02/05 16:24:43;;;;;;;14.57;7.32;;;;;;;;;;5010354;28;20044;-74
2022/02/05 16:27:25;;;;;;;13.82;7.35;;;;;;;;;;5012093;28;20033;-77
2022/02/05 16:30:12;;;;;;;29.05;11.20;;;;;;;;;;5014490;28;20117;-78
2022/02/05 16:32:38;;;;;;;23.90;12.85;;;;;;;;;;4996852;28;20381;-77
2022/02/05 16:35:09;;;;;;;47.40;25.42;;;;;;;;;;4989431;28;20029;-76
2022/02/05 16:37:38;;;;;;;30.42;17.05;;;;;;;;;;4991524;28;20026;-78
2022/02/05 16:40:11;;;;;;;32.53;17.20;;;;;;;;;;5073416;23;20057;-76
2022/02/05 16:42:38;;;;;;;28.55;16.25;;;;;;;;;;5030445;28;20036;-79
2022/02/05 16:45:04;;;;;;;22.88;13.82;;;;;;;;;;5038184;28;20134;-77
2022/02/05 16:47:31;;;;;;;30.20;15.15;;;;;;;;;;5016487;28;20022;-77
2022/02/05 16:49:58;;;;;;;27.63;14.68;;;;;;;;;;5021714;28;20075;-76
2022/02/05 16:52:30;;;;;;;29.38;14.13;;;;;;;;;;5040938;28;20041;-75
2022/02/05 16:54:57;;;;;;;32.40;15.68;;;;;;;;;;5028174;28;20112;-77
2022/02/05 16:57:34;;;;;;;40.33;17.25;;;;;;;;;;5023108;28;20033;-77
2022/02/05 17:00:04;;;;;;;43.17;20.80;;;;;;;;;;5035144;28;20053;-74
2022/02/05 17:02:51;;;;;;;29.27;15.00;;;;;;;;;;5028385;28;20032;-74
2022/02/05 17:05:18;;;;;;;24.20;13.98;;;;;;;;;;5047028;28;20029;-76
2022/02/05 17:08:08;;;;;;;26.65;17.67;;;;;;;;;;5047609;28;20032;-78
2022/02/05 17:11:01;;;;;;;27.88;21.67;;;;;;;;;;5037005;28;20057;-78
2022/02/05 17:13:30;;;;;;;29.80;17.40;;;;;;;;;;4977698;28;20047;-79
2022/02/05 17:15:59;;;;;;;34.88;24.92;;;;;;;;;;4956012;28;20121;-78
2022/02/05 17:18:27;;;;;;;38.25;23.67;;;;;;;;;;4970081;28;20038;-76
2022/02/05 17:20:58;;;;;;;25.95;15.48;;;;;;;;;;4976039;28;20133;-79
2022/02/05 17:23:34;;;;;;;31.02;16.40;;;;;;;;;;4970329;28;20043;-77
2022/02/05 17:26:03;;;;;;;29.33;16.38;;;;;;;;;;4977052;28;20023;-78
2022/02/05 17:28:31;;;;;;;48.88;23.67;;;;;;;;;;4977005;28;20035;-77
2022/02/05 17:31:28;;;;;;;29.85;16.15;;;;;;;;;;4970734;28;20066;-80
2022/02/05 17:33:57;;;;;;;24.38;12.63;;;;;;;;;;4939529;29;20786;-77
2022/02/05 17:36:25;;;;;;;18.65;10.20;;;;;;;;;;4956906;29;20035;-74
2022/02/05 17:38:52;;;;;;;27.50;16.52;;;;;;;;;;4951048;28;20028;-74
2022/02/05 17:41:27;;;;;;;26.77;13.65;;;;;;;;;;4959381;29;20540;-76
2022/02/05 17:44:11;;;;;;;22.00;12.88;;;;;;;;;;4954769;29;20031;-77
2022/02/05 17:46:40;;;;;;;28.05;13.32;;;;;;;;;;4966909;29;20031;-75
2022/02/05 17:49:06;;;;;;;43.90;20.23;;;;;;;;;;4962217;28;20051;-76
2022/02/05 17:51:32;;;;;;;32.97;17.45;;;;;;;;;;4945418;29;20055;-76
2022/02/05 17:54:03;;;;;;;87.13;55.85;;;;;;;;;;4948120;29;20051;-77
2022/02/05 17:56:29;;;;;;;34.08;19.67;;;;;;;;;;4964263;29;20027;-76
2022/02/05 17:58:55;;;;;;;21.50;13.55;;;;;;;;;;4951634;29;20510;-76
2022/02/05 18:01:22;;;;;;;20.40;10.68;;;;;;;;;;4954011;29;20027;-76
2022/02/05 18:03:52;;;;;;;25.55;14.18;;;;;;;;;;4953771;29;20066;-76
2022/02/05 18:06:29;;;;;;;27.58;16.20;;;;;;;;;;4958971;29;20035;-76
2022/02/05 18:09:05;;;;;;;30.80;17.83;;;;;;;;;;4960617;29;20038;-76
2022/02/05 18:11:32;;;;;;;31.65;17.27;;;;;;;;;;4959471;29;20091;-76
2022/02/05 18:14:16;;;;;;;23.33;13.65;;;;;;;;;;4940253;29;20083;-76
2022/02/05 18:16:43;;;;;;;28.77;13.02;;;;;;;;;;4981932;28;20118;-76
2022/02/05 18:19:13;;;;;;;20.48;9.02;;;;;;;;;;5032392;28;20030;-73
2022/02/05 18:21:44;;;;;;;21.48;10.98;;;;;;;;;;5019049;28;20042;-78
2022/02/05 18:24:10;;;;;;;35.25;17.33;;;;;;;;;;5014231;28;20025;-76
2022/02/05 18:26:57;;;;;;;29.75;14.80;;;;;;;;;;5020508;28;20006;-80
2022/02/05 18:29:24;;;;;;;27.27;15.65;;;;;;;;;;5010811;28;20030;-75
2022/02/05 18:31:50;;;;;;;39.20;22.50;;;;;;;;;;5004169;28;20022;-75